createdAt,value
2024-01-10T00:01:30.645Z,9.57
2024-01-10T00:04:33.404Z,10.10
2024-01-10T00:07:37.323Z,10.10
2024-01-10T00:10:40.300Z,9.93
2024-01-10T00:13:44.425Z,9.30
2024-01-10T00:16:47.220Z,9.57
2024-01-10T00:19:49.972Z,8.60
2024-01-10T00:22:52.633Z,8.47
2024-01-10T00:25:55.294Z,7.87
2024-01-10T00:29:02.039Z,9.13
2024-01-10T00:32:08.876Z,8.40
2024-01-10T00:35:12.461Z,8.40
2024-01-10T00:38:15.929Z,8.37
2024-01-10T00:41:18.976Z,8.73
2024-01-10T00:44:23.038Z,7.80
2024-01-10T00:47:26.151Z,8.53
2024-01-10T00:50:28.973Z,9.00
2024-01-10T00:53:31.663Z,9.07
2024-01-10T00:56:34.323Z,8.50
2024-01-10T00:59:38.319Z,8.87
2024-01-10T01:02:41.702Z,8.07
2024-01-10T01:05:44.420Z,9.60
2024-01-10T01:08:47.128Z,8.53
2024-01-10T01:11:49.738Z,8.57
2024-01-10T01:14:53.915Z,8.93
2024-01-10T01:17:56.685Z,9.40
2024-01-10T01:21:00.116Z,7.80
2024-01-10T01:24:02.736Z,8.83
2024-01-10T01:27:05.729Z,8.67
2024-01-10T01:30:12.513Z,7.93
2024-01-10T01:33:15.280Z,7.97
2024-01-10T01:36:18.000Z,8.63
2024-01-10T01:39:20.684Z,8.97
2024-01-10T01:42:23.617Z,7.80
2024-01-10T01:45:27.614Z,7.97
2024-01-10T01:48:30.755Z,8.97
2024-01-10T01:51:34.163Z,9.00
2024-01-10T01:54:37.324Z,9.00
2024-01-10T01:57:40.523Z,9.30
2024-01-10T02:00:45.583Z,9.37
2024-01-10T02:03:48.342Z,9.10
2024-01-10T02:06:51.139Z,8.27
2024-01-10T02:09:53.871Z,8.93
2024-01-10T02:12:56.850Z,9.13
2024-01-10T02:16:01.011Z,7.90
2024-01-10T02:19:03.768Z,8.33
2024-01-10T02:22:06.436Z,8.83
2024-01-10T02:25:11.290Z,8.90
2024-01-10T02:28:13.980Z,9.07
2024-01-10T02:31:16.659Z,9.10
2024-01-10T02:34:19.442Z,9.53
2024-01-10T02:37:22.107Z,9.13
2024-01-10T02:40:26.199Z,8.83
2024-01-10T02:43:29.006Z,8.70
2024-01-10T02:46:31.639Z,9.47
2024-01-10T02:49:34.324Z,9.30
2024-01-10T02:52:37.019Z,9.27
2024-01-10T02:55:41.281Z,10.00
2024-01-10T02:58:43.955Z,9.87
2024-01-10T03:01:46.646Z,9.87
2024-01-10T03:04:49.903Z,9.67
2024-01-10T03:07:52.612Z,9.80
2024-01-10T03:10:56.665Z,9.20
2024-01-10T03:14:05.006Z,9.27
2024-01-10T03:17:07.743Z,9.03
2024-01-10T03:20:11.231Z,8.73
2024-01-10T03:23:13.947Z,8.37
2024-01-10T03:26:18.117Z,8.10
2024-01-10T03:29:20.886Z,9.13
2024-01-10T03:32:23.625Z,9.80
2024-01-10T03:35:26.318Z,8.50
2024-01-10T03:38:28.983Z,9.17
2024-01-10T03:41:32.976Z,8.83
2024-01-10T03:44:35.807Z,8.03
2024-01-10T03:47:38.515Z,8.77
2024-01-10T03:50:41.165Z,8.87
2024-01-10T03:53:43.993Z,8.43
2024-01-10T03:56:47.981Z,8.27
2024-01-10T03:59:50.631Z,8.07
2024-01-10T04:02:53.764Z,7.57
2024-01-10T04:05:56.429Z,7.57
2024-01-10T04:08:59.085Z,8.47
2024-01-10T04:12:03.052Z,8.57
2024-01-10T04:15:06.822Z,8.40
2024-01-10T04:18:10.719Z,7.87
2024-01-10T04:21:14.402Z,8.93
2024-01-10T04:24:17.044Z,8.07
2024-01-10T04:27:21.050Z,8.17
2024-01-10T04:30:23.699Z,9.10
2024-01-10T04:33:26.497Z,10.10
2024-01-10T04:36:29.270Z,9.53
2024-01-10T04:39:31.879Z,8.87
2024-01-10T04:42:35.886Z,8.77
2024-01-10T04:45:38.719Z,8.37
2024-01-10T04:48:41.410Z,8.83
2024-01-10T04:51:44.104Z,8.80
2024-01-10T04:54:46.742Z,9.33
2024-01-10T04:57:50.737Z,9.27
2024-01-10T05:00:53.613Z,9.00
2024-01-10T05:03:56.592Z,8.53
2024-01-10T05:06:59.240Z,9.27
2024-01-10T05:10:01.875Z,9.80
2024-01-10T05:13:06.164Z,9.23
2024-01-10T05:16:09.076Z,9.77
2024-01-10T05:19:11.782Z,9.07
2024-01-10T05:22:14.928Z,9.23
2024-01-10T05:25:19.367Z,9.40
2024-01-10T05:28:23.438Z,8.67
2024-01-10T05:31:26.087Z,8.00
2024-01-10T05:34:29.216Z,8.60
2024-01-10T05:37:31.858Z,9.63
2024-01-10T05:40:34.708Z,8.67
2024-01-10T05:43:38.773Z,9.90
2024-01-10T05:46:41.997Z,9.60
2024-01-10T05:49:44.857Z,9.47
2024-01-10T05:52:49.829Z,9.43
2024-01-10T05:55:53.219Z,9.77
2024-01-10T05:58:57.361Z,9.33
2024-01-10T06:02:00.562Z,9.70
2024-01-10T06:05:07.477Z,8.73
2024-01-10T06:08:10.356Z,8.80
2024-01-10T06:11:13.258Z,8.70
2024-01-10T06:14:17.422Z,9.60
2024-01-10T06:17:20.241Z,8.97
2024-01-10T06:20:22.934Z,9.10
2024-01-10T06:23:25.785Z,9.30
2024-01-10T06:26:28.519Z,9.17
2024-01-10T06:29:32.617Z,9.63
2024-01-10T06:32:36.113Z,8.70
2024-01-10T06:35:38.850Z,8.73
2024-01-10T06:38:41.916Z,9.33
2024-01-10T06:41:45.020Z,9.53
2024-01-10T06:44:49.025Z,9.30
2024-01-10T06:47:51.972Z,9.77
2024-01-10T06:50:54.664Z,9.37
2024-01-10T06:54:03.855Z,9.17
2024-01-10T06:57:06.708Z,10.10
2024-01-10T07:00:12.302Z,10.00
2024-01-10T07:03:15.200Z,9.30
2024-01-10T07:06:17.927Z,8.70
2024-01-10T07:09:21.098Z,9.03
2024-01-10T07:12:23.909Z,8.30
2024-01-10T07:15:28.053Z,8.70
2024-01-10T07:18:30.815Z,8.87
2024-01-10T07:21:33.552Z,9.10
2024-01-10T07:24:36.353Z,7.87
2024-01-10T07:27:39.309Z,8.30
2024-01-10T07:30:45.252Z,6.90
2024-01-10T07:33:47.948Z,7.87
2024-01-10T07:36:50.618Z,7.67
2024-01-10T07:39:54.110Z,6.77
2024-01-10T07:42:56.880Z,7.00
2024-01-10T07:46:02.232Z,7.33
2024-01-10T07:49:05.250Z,7.40
2024-01-10T07:52:07.983Z,6.93
2024-01-10T07:55:11.504Z,6.73
2024-01-10T07:58:14.149Z,6.30
2024-01-10T08:01:18.226Z,6.33
2024-01-10T08:04:20.865Z,6.07
2024-01-10T08:07:23.648Z,6.97
2024-01-10T08:10:28.173Z,6.57
2024-01-10T08:13:31.346Z,6.47
2024-01-10T08:16:36.182Z,6.20
2024-01-10T08:19:38.859Z,6.13
2024-01-10T08:22:41.868Z,6.47
2024-01-10T08:25:45.265Z,5.37
2024-01-10T08:28:47.971Z,5.83
2024-01-10T08:31:52.032Z,6.37
2024-01-10T08:34:54.816Z,6.37
2024-01-10T08:37:57.567Z,5.97
2024-01-10T08:41:00.333Z,6.10
2024-01-10T08:44:03.713Z,6.23
2024-01-10T08:47:08.052Z,5.60
2024-01-10T08:50:13.356Z,5.53
2024-01-10T08:53:17.219Z,5.47
2024-01-10T08:56:20.932Z,5.83
2024-01-10T08:59:23.728Z,6.13
2024-01-10T09:02:28.741Z,5.27
2024-01-10T09:05:31.706Z,5.03
2024-01-10T09:08:34.638Z,6.30
2024-01-10T09:11:40.088Z,5.63
2024-01-10T09:14:44.407Z,6.10
2024-01-10T09:17:48.429Z,6.30
2024-01-10T09:20:51.115Z,6.33
2024-01-10T09:23:54.149Z,6.10
2024-01-10T09:26:57.055Z,6.07
2024-01-10T09:29:59.715Z,6.57
2024-01-10T09:33:03.964Z,5.40
2024-01-10T09:36:07.470Z,5.37
2024-01-10T09:39:14.349Z,5.27
2024-01-10T09:42:17.343Z,5.67
2024-01-10T09:45:21.054Z,6.10
2024-01-10T09:48:25.237Z,5.73
2024-01-10T09:51:30.593Z,5.20
2024-01-10T09:54:33.559Z,5.97
2024-01-10T09:57:37.641Z,5.70
2024-01-10T10:00:42.734Z,5.43
2024-01-10T10:03:48.221Z,5.67
2024-01-10T10:07:02.401Z,5.57
2024-01-10T10:10:06.322Z,5.43
2024-01-10T10:13:09.920Z,5.20
2024-01-10T10:16:13.988Z,5.57
2024-01-10T10:19:34.164Z,5.57
2024-01-10T10:23:00.768Z,5.90
2024-01-10T10:26:15.038Z,5.27
2024-01-10T10:29:19.851Z,6.07
2024-01-10T10:32:23.001Z,5.00
2024-01-10T10:35:36.803Z,5.03
2024-01-10T10:38:42.571Z,5.20
2024-01-10T10:41:45.337Z,6.03
2024-01-10T10:44:51.170Z,5.80
2024-01-10T10:48:00.347Z,5.47
2024-01-10T10:51:08.642Z,5.37
2024-01-10T10:54:12.172Z,5.67
2024-01-10T10:57:16.557Z,5.33
2024-01-10T11:00:21.226Z,5.40
2024-01-10T11:03:26.525Z,5.97
2024-01-10T11:06:31.182Z,6.00
2024-01-10T11:09:35.025Z,6.00
2024-01-10T11:12:56.909Z,5.23
2024-01-10T11:16:27.078Z,5.70
2024-01-10T11:19:56.821Z,5.23
2024-01-10T11:23:31.936Z,5.70
2024-01-10T11:26:36.304Z,5.33
2024-01-10T11:29:40.896Z,5.60
2024-01-10T11:32:46.002Z,5.90
2024-01-10T11:36:11.840Z,6.40
2024-01-10T11:39:16.134Z,7.13
2024-01-10T11:42:24.513Z,6.80
2024-01-10T11:45:39.862Z,7.93
2024-01-10T11:48:44.500Z,7.13
2024-01-10T11:51:49.081Z,6.77
2024-01-10T11:54:53.248Z,7.57
2024-01-10T11:58:10.772Z,6.30
2024-01-10T12:01:13.734Z,6.60
2024-01-10T12:04:23.655Z,6.13
2024-01-10T12:07:29.823Z,6.87
2024-01-10T12:10:37.298Z,6.90
2024-01-10T12:13:39.975Z,6.13
2024-01-10T12:16:42.968Z,5.97
2024-01-10T12:19:47.105Z,6.53
2024-01-10T12:22:50.421Z,5.70
2024-01-10T12:25:54.454Z,6.00
2024-01-10T12:28:58.097Z,5.83
2024-01-10T12:32:01.797Z,6.00
2024-01-10T12:35:07.035Z,5.83
2024-01-10T12:38:10.033Z,6.50
2024-01-10T12:41:14.136Z,5.23
2024-01-10T12:44:16.827Z,4.97
2024-01-10T12:47:23.793Z,5.13
2024-01-10T12:50:27.175Z,5.20
2024-01-10T12:53:30.587Z,4.93
2024-01-10T12:56:34.902Z,5.20
2024-01-10T12:59:37.630Z,7.20
2024-01-10T13:02:41.230Z,6.30
2024-01-10T13:05:45.048Z,5.27
2024-01-10T13:08:47.980Z,5.77
2024-01-10T13:11:52.075Z,5.60
2024-01-10T13:14:55.545Z,5.87
2024-01-10T13:17:59.103Z,5.60
2024-01-10T13:21:01.905Z,5.20
2024-01-10T13:24:05.159Z,5.57
2024-01-10T13:27:10.710Z,5.27
2024-01-10T13:30:13.853Z,5.00
2024-01-10T13:33:16.759Z,4.53
2024-01-10T13:36:20.333Z,5.30
2024-01-10T13:39:22.981Z,5.23
2024-01-10T13:42:26.986Z,4.97
2024-01-10T13:45:29.602Z,5.07
2024-01-10T13:48:32.296Z,4.80
2024-01-10T13:51:35.060Z,5.03
2024-01-10T13:54:38.441Z,5.07
2024-01-10T13:57:42.733Z,5.03
2024-01-10T14:00:45.428Z,5.17
2024-01-10T14:03:48.186Z,4.63
2024-01-10T14:06:51.628Z,3.97
2024-01-10T14:09:55.413Z,4.83
2024-01-10T14:12:59.397Z,6.80
2024-01-10T14:16:02.239Z,9.20
2024-01-10T14:19:05.294Z,8.10
2024-01-10T14:22:16.937Z,6.37
2024-01-10T14:25:25.115Z,6.30
2024-01-10T14:28:29.116Z,5.07
2024-01-10T14:31:41.179Z,8.37
2024-01-10T14:34:53.600Z,5.23
2024-01-10T14:37:56.420Z,4.53
2024-01-10T14:40:59.681Z,4.40
2024-01-10T14:44:04.819Z,5.10
2024-01-10T14:47:11.370Z,5.63
2024-01-10T14:50:15.328Z,4.67
2024-01-10T14:53:18.020Z,5.37
2024-01-10T14:56:20.713Z,5.85
2024-01-10T14:59:36.563Z,5.30
2024-01-10T15:02:43.645Z,5.20
2024-01-10T15:05:46.403Z,5.63
2024-01-10T15:08:49.304Z,5.10
2024-01-10T15:11:52.203Z,5.27
2024-01-10T15:14:56.199Z,5.43
2024-01-10T15:17:58.849Z,6.30
2024-01-10T15:21:01.554Z,6.57
2024-01-10T15:24:04.828Z,6.20
2024-01-10T15:27:10.665Z,6.00
2024-01-10T15:30:17.358Z,6.43
2024-01-10T15:33:20.521Z,6.53
2024-01-10T15:36:23.224Z,7.17
2024-01-10T15:39:26.430Z,7.10
2024-01-10T15:42:29.638Z,7.10
2024-01-10T15:45:34.839Z,7.13
2024-01-10T15:48:37.591Z,7.50
2024-01-10T15:51:40.280Z,7.90
2024-01-10T15:54:42.930Z,7.70
2024-01-10T15:57:47.368Z,7.67
2024-01-10T16:00:51.542Z,7.50
2024-01-10T16:03:54.657Z,7.87
2024-01-10T16:06:57.374Z,7.53
2024-01-10T16:10:00.147Z,8.13
2024-01-10T16:13:04.105Z,7.70
2024-01-10T16:16:10.084Z,7.40
2024-01-10T16:19:13.150Z,7.20
2024-01-10T16:22:16.086Z,7.50
2024-01-10T16:25:18.748Z,8.40
2024-01-10T16:28:21.403Z,19.63
2024-01-10T16:31:25.677Z,12.40
2024-01-10T16:34:29.769Z,9.40
2024-01-10T16:37:32.817Z,9.20
2024-01-10T16:40:35.466Z,8.10
2024-01-10T16:43:38.110Z,8.73
2024-01-10T16:46:42.118Z,8.50
2024-01-10T16:49:44.934Z,8.37
2024-01-10T16:52:48.566Z,8.53
2024-01-10T16:55:52.517Z,8.57
2024-01-10T16:58:58.403Z,9.13
2024-01-10T17:02:04.812Z,8.37
2024-01-10T17:05:09.685Z,9.07
2024-01-10T17:08:12.486Z,9.03
2024-01-10T17:11:17.703Z,8.83
2024-01-10T17:14:20.763Z,9.17
2024-01-10T17:17:24.960Z,9.13
2024-01-10T17:20:28.302Z,8.53
2024-01-10T17:23:31.083Z,8.80
2024-01-10T17:26:34.012Z,8.07
2024-01-10T17:29:36.714Z,9.03
2024-01-10T17:32:40.872Z,8.97
2024-01-10T17:35:43.899Z,9.97
2024-01-10T17:38:47.034Z,9.23
2024-01-10T17:41:49.840Z,9.60
2024-01-10T17:44:52.477Z,12.30
2024-01-10T17:47:56.872Z,11.57
2024-01-10T17:50:59.594Z,12.40
2024-01-10T17:54:02.317Z,12.87
2024-01-10T17:57:05.336Z,12.07
2024-01-10T18:00:10.573Z,11.10
2024-01-10T18:03:15.119Z,10.50
2024-01-10T18:06:17.876Z,9.43
2024-01-10T18:09:20.539Z,10.87
2024-01-10T18:12:23.476Z,12.50
2024-01-10T18:15:26.093Z,11.03
2024-01-10T18:18:33.142Z,10.90
2024-01-10T18:21:35.871Z,9.80
2024-01-10T18:24:38.601Z,11.60
2024-01-10T18:27:41.264Z,10.00
2024-01-10T18:30:44.386Z,9.43
2024-01-10T18:33:48.976Z,9.57
2024-01-10T18:36:51.766Z,9.87
2024-01-10T18:39:54.643Z,9.33
2024-01-10T18:42:57.409Z,9.37
2024-01-10T18:46:00.080Z,9.67
2024-01-10T18:49:06.539Z,9.07
2024-01-10T18:52:09.887Z,9.23
2024-01-10T18:55:12.598Z,9.50
2024-01-10T18:58:15.714Z,9.03
2024-01-10T19:01:18.685Z,9.63
2024-01-10T19:04:22.857Z,10.10
2024-01-10T19:07:25.545Z,10.03
2024-01-10T19:10:28.185Z,8.30
2024-01-10T19:13:39.454Z,9.87
2024-01-10T19:16:44.278Z,8.43
2024-01-10T19:19:48.380Z,11.17
2024-01-10T19:22:51.164Z,13.37
2024-01-10T19:25:54.190Z,10.90
2024-01-10T19:28:56.934Z,10.07
2024-01-10T19:31:59.648Z,8.87
2024-01-10T19:35:03.720Z,10.17
2024-01-10T19:38:06.594Z,8.83
2024-01-10T19:41:09.351Z,9.60
2024-01-10T19:44:12.044Z,8.97
2024-01-10T19:47:15.140Z,9.43
2024-01-10T19:50:19.284Z,9.37
2024-01-10T19:53:21.990Z,9.70
2024-01-10T19:56:25.192Z,8.93
2024-01-10T19:59:27.924Z,8.97
2024-01-10T20:02:30.607Z,8.40
2024-01-10T20:05:35.051Z,8.47
2024-01-10T20:08:37.824Z,9.53
2024-01-10T20:11:40.516Z,9.53
2024-01-10T20:14:43.218Z,9.03
2024-01-10T20:17:46.637Z,10.20
2024-01-10T20:20:50.861Z,9.70
2024-01-10T20:23:53.646Z,9.83
2024-01-10T20:26:56.285Z,9.63
2024-01-10T20:29:58.932Z,9.27
2024-01-10T20:33:02.558Z,9.10
2024-01-10T20:36:07.320Z,8.80
2024-01-10T20:39:09.959Z,8.53
2024-01-10T20:42:13.633Z,8.53
2024-01-10T20:45:18.506Z,8.87
2024-01-10T20:48:21.238Z,7.73
2024-01-10T20:51:25.410Z,7.70
2024-01-10T20:54:28.034Z,8.00
2024-01-10T20:57:31.080Z,7.90
2024-01-10T21:00:36.818Z,8.70
2024-01-10T21:03:39.561Z,7.33
2024-01-10T21:06:48.547Z,7.50
2024-01-10T21:09:57.699Z,7.77
2024-01-10T21:13:00.363Z,7.40
2024-01-10T21:16:03.950Z,8.00
2024-01-10T21:19:06.748Z,8.20
2024-01-10T21:22:13.679Z,8.20
2024-01-10T21:25:16.377Z,8.40
2024-01-10T21:28:19.024Z,7.60
2024-01-10T21:31:21.675Z,8.63
2024-01-10T21:34:24.508Z,7.93
2024-01-10T21:37:28.732Z,7.43
2024-01-10T21:40:31.364Z,8.43
2024-01-10T21:43:34.026Z,7.17
2024-01-10T21:46:36.671Z,8.80
2024-01-10T21:49:39.334Z,8.00
2024-01-10T21:52:43.338Z,8.13
2024-01-10T21:55:46.061Z,8.87
2024-01-10T21:58:49.324Z,8.13
2024-01-10T22:01:52.008Z,8.30
2024-01-10T22:04:54.871Z,8.30
2024-01-10T22:07:59.352Z,8.93
2024-01-10T22:11:02.081Z,8.40
2024-01-10T22:14:04.837Z,8.90
2024-01-10T22:17:07.835Z,8.27
2024-01-10T22:20:12.723Z,8.93
2024-01-10T22:23:16.842Z,8.63
2024-01-10T22:26:19.628Z,8.60
2024-01-10T22:29:24.208Z,8.87
2024-01-10T22:32:27.075Z,10.17
2024-01-10T22:35:30.176Z,9.90
2024-01-10T22:38:34.533Z,11.00
2024-01-10T22:41:37.280Z,10.93
2024-01-10T22:44:40.256Z,10.50
2024-01-10T22:47:43.047Z,9.57
2024-01-10T22:50:45.856Z,10.37
2024-01-10T22:53:49.983Z,10.63
2024-01-10T22:56:52.689Z,10.47
2024-01-10T22:59:55.328Z,11.50
2024-01-10T23:02:58.815Z,10.57
2024-01-10T23:06:01.869Z,11.67
2024-01-10T23:09:06.678Z,10.57
2024-01-10T23:12:10.124Z,10.57
2024-01-10T23:15:12.892Z,11.23
2024-01-10T23:18:15.619Z,10.63
2024-01-10T23:21:19.398Z,11.77
2024-01-10T23:24:23.734Z,12.20
2024-01-10T23:27:26.351Z,12.90
2024-01-10T23:30:29.053Z,12.90
2024-01-10T23:33:31.766Z,12.80
2024-01-10T23:36:34.449Z,12.33
2024-01-10T23:39:38.573Z,12.53
2024-01-10T23:42:41.222Z,11.83
2024-01-10T23:45:46.408Z,14.17
2024-01-10T23:48:50.417Z,13.70
2024-01-10T23:51:53.552Z,13.27
2024-01-10T23:54:57.791Z,15.20
2024-01-10T23:58:00.480Z,15.60
